EGNM/LBA METAR and TAF weather

Enter ICAO airport designator
Station Type Date Time Source
EGNM METAR 2018/10/16 21:20 UTC NOAA

EGNM 162120Z 21009KT 9999 FEW016 SCT032 12/10 Q1013


Station Type Date Time Source
EGNM Decoded METAR 2018/10/16 21:20 UTC NOAA

Leeds And Bradford, United Kingdom (EGNM) 53-52N 001-39W
Oct 16, 2018 - 05:20 PM EDT / 2018.10.16 2120 UTC
Wind: from the SSW (210 degrees) at 10 MPH (9 KT):0
Visibility: greater than 7 mile(s):0
Sky conditions: partly cloudy
Temperature: 53 F (12 C)
Dew Point: 50 F (10 C)
Relative Humidity: 87%
Pressure (altimeter): 29.91 in. Hg (1013 hPa)
ob: EGNM 162120Z 21009KT 9999 FEW016 SCT032 12/10 Q1013
cycle: 21

Station Type Date Time Source
EGNM TAF 2018/10/16 18:16 UTC NOAA

TAF EGNM 161657Z 1618/1718 22009KT 9999 FEW014 SCT025
TEMPO 1621/1709 BKN012 PROB30
TEMPO 1621/1703 4000 RADZ BKN009
BECMG 1709/1712 28014KT


Example: see airport list